Time;durP1;ratioP1;P1;durP2;ratioP2;P2;SDS_P1;SDS_P2;PMS_P1;PMS_P2;Temp;Humidity;BMP_temperature;BMP_pressure;BME280_temperature;BME280_humidity;BME280_pressure;Samples;Min_cycle;Max_cycle;Signal;HPM_P1;HPM_P2
2021/05/15 00:02:06;;;;;;;2.42;1.60;;;;;;;13.22;87.44;99468.28;5013779;28;20034;-71
2021/05/15 00:04:32;;;;;;;2.15;1.30;;;;;;;13.27;87.23;99451.13;5013425;28;20037;-71
2021/05/15 00:06:57;;;;;;;1.48;1.23;;;;;;;13.19;86.75;99453.09;5012857;28;20080;-71
2021/05/15 00:09:23;;;;;;;1.35;1.27;;;;;;;13.23;86.71;99444.75;5012858;28;20018;-71
2021/05/15 00:11:51;;;;;;;4.07;2.00;;;;;;;13.25;86.49;99447.94;5012750;28;20057;-73
2021/05/15 00:14:17;;;;;;;1.75;1.00;;;;;;;13.28;86.18;99458.31;5013715;28;20026;-71
2021/05/15 00:16:43;;;;;;;1.88;1.10;;;;;;;13.30;85.21;99458.72;5012936;28;20044;-71
2021/05/15 00:19:08;;;;;;;1.30;1.20;;;;;;;13.25;85.78;99453.50;5013699;28;20047;-71
2021/05/15 00:21:34;;;;;;;2.10;1.27;;;;;;;13.34;85.74;99451.94;5013899;28;20033;-71
2021/05/15 00:24:01;;;;;;;1.70;1.33;;;;;;;13.33;85.37;99444.75;5012581;28;20435;-70
2021/05/15 00:26:27;;;;;;;3.58;1.45;;;;;;;13.27;85.14;99449.16;4996645;28;20091;-71
2021/05/15 00:28:53;;;;;;;1.55;1.27;;;;;;;13.15;85.95;99448.69;5012508;28;20030;-73
2021/05/15 00:31:19;;;;;;;3.38;1.15;;;;;;;13.07;86.55;99443.09;5012620;28;20041;-70
2021/05/15 00:33:45;;;;;;;1.35;1.10;;;;;;;13.09;86.34;99440.69;5012610;28;20030;-71
2021/05/15 00:36:10;;;;;;;2.08;1.27;;;;;;;13.06;87.07;99441.50;5012436;28;20030;-71
2021/05/15 00:38:36;;;;;;;1.95;1.35;;;;;;;13.15;87.26;99449.47;4999484;28;20485;-70
2021/05/15 00:41:02;;;;;;;4.03;1.50;;;;;;;13.26;87.48;99452.31;5016474;28;20029;-71
2021/05/15 00:43:28;;;;;;;1.83;1.25;;;;;;;13.38;88.11;99451.94;5000167;28;20031;-70
2021/05/15 00:45:54;;;;;;;1.45;1.35;;;;;;;13.49;86.86;99451.94;5016544;28;20026;-70
2021/05/15 00:48:20;;;;;;;1.23;1.17;;;;;;;13.46;87.17;99459.09;5016240;28;20021;-70
2021/05/15 00:50:48;;;;;;;2.97;1.10;;;;;;;13.51;87.44;99467.09;5016460;28;20029;-70
2021/05/15 00:53:14;;;;;;;1.77;1.23;;;;;;;13.48;87.00;99472.69;5015934;28;20045;-71
2021/05/15 00:55:42;;;;;;;1.25;1.05;;;;;;;13.62;87.62;99484.66;5016277;28;20028;-71
2021/05/15 00:58:07;;;;;;;3.45;1.25;;;;;;;13.63;86.82;99491.84;5016184;28;20419;-71
2021/05/15 01:00:33;;;;;;;1.92;1.20;;;;;;;13.69;86.15;99495.03;5016262;28;20117;-71
2021/05/15 01:03:02;;;;;;;4.05;1.48;;;;;;;13.67;86.45;99491.84;5016181;28;20057;-71
2021/05/15 01:05:27;;;;;;;1.05;1.05;;;;;;;13.61;86.30;99490.66;5016046;28;20080;-70
2021/05/15 01:07:53;;;;;;;0.98;0.98;;;;;;;13.56;86.14;99491.84;5016024;28;20030;-71
2021/05/15 01:10:19;;;;;;;1.48;1.38;;;;;;;13.67;83.89;99493.84;5015836;28;20025;-71
2021/05/15 01:12:54;;;;;;;1.45;1.20;;;;;;;13.76;84.45;99494.22;5016066;28;20112;-71
2021/05/15 01:15:22;;;;;;;1.77;1.05;;;;;;;13.69;84.44;99497.84;5017041;28;20025;-71
2021/05/15 01:17:56;;;;;;;2.25;1.20;;;;;;;13.64;85.43;99492.66;5015814;28;20448;-70
2021/05/15 01:20:24;;;;;;;2.13;1.13;;;;;;;13.62;86.22;99495.81;5016974;28;20018;-71
2021/05/15 01:22:50;;;;;;;1.60;1.38;;;;;;;13.57;85.89;99496.22;5017105;28;20449;-71
2021/05/15 01:25:19;;;;;;;2.53;1.08;;;;;;;13.67;85.81;99505.00;5015643;28;20029;-71
2021/05/15 01:27:44;;;;;;;1.63;1.17;;;;;;;13.68;85.64;99503.81;5016937;28;20087;-71
2021/05/15 01:30:12;;;;;;;2.38;1.20;;;;;;;13.67;85.22;99508.59;5015529;28;20404;-71
2021/05/15 01:32:39;;;;;;;2.17;1.30;;;;;;;13.75;85.08;99515.81;5015554;28;20029;-71
2021/05/15 01:35:07;;;;;;;2.65;1.30;;;;;;;13.76;85.02;99513.81;5015646;28;20109;-70
2021/05/15 01:37:33;;;;;;;3.95;1.30;;;;;;;13.73;85.35;99507.00;5016922;28;20112;-71
2021/05/15 01:39:59;;;;;;;1.55;0.90;;;;;;;13.68;84.82;99503.81;5015453;28;20093;-71
2021/05/15 01:42:24;;;;;;;1.00;0.80;;;;;;;13.69;83.63;99516.59;5015261;28;20034;-71
2021/05/15 01:44:50;;;;;;;0.73;0.50;;;;;;;13.63;82.15;99519.81;5015376;28;20029;-71
2021/05/15 01:47:15;;;;;;;1.15;0.65;;;;;;;13.76;81.59;99522.19;5015263;28;20105;-71
2021/05/15 01:49:41;;;;;;;1.50;0.50;;;;;;;13.86;80.62;99532.56;5015141;28;20026;-71
2021/05/15 01:52:06;;;;;;;1.00;0.50;;;;;;;13.80;80.13;99528.59;5014837;28;20050;-71
2021/05/15 01:54:32;;;;;;;1.60;0.50;;;;;;;13.78;81.05;99528.97;5014863;28;20022;-71
2021/05/15 01:56:58;;;;;;;0.50;0.50;;;;;;;13.86;81.12;99533.38;5015214;28;20448;-71
2021/05/15 01:59:25;;;;;;;0.57;0.57;;;;;;;13.84;81.78;99534.94;5014715;28;20027;-70
2021/05/15 02:01:51;;;;;;;0.80;0.80;;;;;;;13.82;82.45;99532.56;5015079;28;20456;-71
2021/05/15 02:04:16;;;;;;;2.30;0.60;;;;;;;13.86;82.36;99530.56;5014935;28;20036;-71
2021/05/15 02:06:42;;;;;;;1.00;0.70;;;;;;;13.91;82.33;99525.78;5014935;28;20022;-71
2021/05/15 02:09:07;;;;;;;0.77;0.75;;;;;;;13.83;82.36;99536.16;5014976;28;20104;-71
2021/05/15 02:11:34;;;;;;;1.40;1.05;;;;;;;13.82;82.69;99531.78;5014755;28;20033;-71
2021/05/15 02:14:00;;;;;;;2.30;1.20;;;;;;;13.88;82.68;99541.34;5015823;28;20032;-71
2021/05/15 02:16:26;;;;;;;1.15;0.80;;;;;;;13.78;82.25;99530.97;5014745;28;20120;-71
2021/05/15 02:18:52;;;;;;;2.58;0.82;;;;;;;13.79;82.53;99532.56;5014696;28;20365;-71
2021/05/15 02:21:17;;;;;;;1.05;0.82;;;;;;;13.73;82.27;99539.75;5014685;28;20109;-72
2021/05/15 02:23:43;;;;;;;0.80;0.80;;;;;;;13.66;82.13;99534.97;5014674;28;20018;-71
2021/05/15 02:26:08;;;;;;;1.38;0.80;;;;;;;13.65;81.81;99544.56;5014672;28;20040;-71
2021/05/15 02:28:34;;;;;;;2.20;0.85;;;;;;;13.69;82.44;99550.13;5014498;28;20075;-71
2021/05/15 02:30:59;;;;;;;1.20;1.13;;;;;;;13.72;82.20;99543.75;5014666;28;20364;-71
2021/05/15 02:33:25;;;;;;;0.95;0.65;;;;;;;13.59;81.02;99540.56;5014344;28;20025;-71
2021/05/15 02:35:51;;;;;;;0.80;0.80;;;;;;;13.41;81.66;99537.75;5014457;28;20081;-72
2021/05/15 02:38:19;;;;;;;1.27;0.82;;;;;;;13.53;80.78;99540.16;5015876;28;20029;-71
2021/05/15 02:40:48;;;;;;;0.70;0.70;;;;;;;13.50;81.31;99549.34;5015221;28;20034;-72
2021/05/15 02:43:16;;;;;;;1.42;0.98;;;;;;;13.41;81.38;99540.53;5014412;28;20408;-72
2021/05/15 02:45:43;;;;;;;1.45;1.35;;;;;;;13.44;81.05;99555.72;5014122;28;20384;-71
2021/05/15 02:48:09;;;;;;;1.05;0.95;;;;;;;13.30;81.26;99551.69;5014340;28;20018;-71
2021/05/15 02:50:35;;;;;;;0.68;0.65;;;;;;;13.28;81.41;99564.47;5013936;28;20037;-71
2021/05/15 02:53:01;;;;;;;2.15;1.92;;;;;;;13.29;80.89;99572.44;5013648;28;20054;-71
2021/05/15 02:55:34;;;;;;;7.30;6.70;;;;;;;13.39;81.44;99573.69;5014020;28;20040;-71
2021/05/15 02:58:00;;;;;;;4.93;4.50;;;;;;;13.37;81.53;99570.50;5013938;28;20018;-71
2021/05/15 03:00:28;;;;;;;5.22;4.82;;;;;;;13.32;80.91;99573.69;5013438;28;20072;-72
2021/05/15 03:02:55;;;;;;;3.83;1.90;;;;;;;13.20;81.00;99568.41;5013850;28;20112;-70
2021/05/15 03:05:23;;;;;;;1.92;1.60;;;;;;;13.15;82.11;99579.97;5013939;28;20461;-71
2021/05/15 03:07:49;;;;;;;1.77;1.40;;;;;;;13.14;82.62;99570.78;5013752;28;20022;-71
2021/05/15 03:10:15;;;;;;;2.22;1.30;;;;;;;13.00;83.71;99584.72;5013747;28;20084;-71
2021/05/15 03:12:41;;;;;;;2.55;1.58;;;;;;;13.03;84.09;99579.13;5013633;28;20117;-71
2021/05/15 03:15:11;;;;;;;2.75;1.60;;;;;;;12.89;85.11;99586.66;5014053;28;20058;-71
2021/05/15 03:17:37;;;;;;;2.30;1.55;;;;;;;12.87;85.13;99595.44;5014796;28;20026;-71
2021/05/15 03:20:04;;;;;;;3.85;3.53;;;;;;;12.90;85.68;99605.81;5013711;28;20120;-71
2021/05/15 03:22:30;;;;;;;4.00;3.60;;;;;;;12.84;86.57;99601.81;5013404;28;20041;-71
2021/05/15 03:24:55;;;;;;;3.92;2.25;;;;;;;12.88;86.79;99612.97;5013463;28;20022;-71
2021/05/15 03:27:21;;;;;;;5.00;1.90;;;;;;;12.77;85.87;99610.13;5013509;28;20029;-71
2021/05/15 03:29:46;;;;;;;2.88;1.90;;;;;;;12.90;86.16;99622.56;5013292;28;20018;-71
2021/05/15 03:32:13;;;;;;;1.27;1.17;;;;;;;12.72;82.05;99627.25;5015055;28;20152;-71
2021/05/15 03:34:38;;;;;;;3.25;0.82;;;;;;;12.67;78.32;99624.84;5013323;28;20030;-71
2021/05/15 03:37:04;;;;;;;1.67;0.77;;;;;;;12.53;76.99;99629.16;5013318;28;20055;-70
2021/05/15 03:39:30;;;;;;;1.10;0.63;;;;;;;12.46;78.93;99637.47;5013220;28;20029;-71
2021/05/15 03:41:55;;;;;;;3.75;3.08;;;;;;;12.50;79.44;99631.91;5013107;28;20029;-71
2021/05/15 03:44:21;;;;;;;4.25;2.38;;;;;;;12.46;79.86;99636.66;5013264;28;20040;-71
2021/05/15 03:46:48;;;;;;;1.42;1.33;;;;;;;12.41;79.49;99645.41;5013015;28;20408;-70
2021/05/15 03:49:16;;;;;;;1.50;1.40;;;;;;;12.28;79.26;99636.56;5014225;28;20026;-71
2021/05/15 03:51:42;;;;;;;5.25;3.75;;;;;;;12.30;80.07;99656.50;5013811;28;20452;-70
2021/05/15 03:54:07;;;;;;;22.48;16.75;;;;;;;12.49;80.83;99663.81;5013033;28;20479;-71
2021/05/15 03:56:33;;;;;;;10.18;4.43;;;;;;;12.36;80.63;99654.97;5013145;28;20022;-71
2021/05/15 03:58:59;;;;;;;2.10;1.60;;;;;;;12.55;80.49;99663.03;5012795;28;20112;-71
2021/05/15 04:01:24;;;;;;;1.70;0.90;;;;;;;12.49;80.68;99664.59;5012960;28;20444;-71
2021/05/15 04:03:50;;;;;;;1.95;1.20;;;;;;;12.63;80.18;99663.13;5012853;28;20037;-71
2021/05/15 04:06:16;;;;;;;1.50;1.20;;;;;;;12.65;79.79;99666.31;5012868;28;20372;-71
2021/05/15 04:08:42;;;;;;;2.55;1.25;;;;;;;12.77;79.94;99679.94;5012671;28;20121;-71
2021/05/15 04:11:08;;;;;;;1.20;1.20;;;;;;;12.72;80.48;99678.31;5012448;28;20025;-71
2021/05/15 04:13:54;;;;;;;1.60;1.50;;;;;;;12.83;80.79;99686.72;5012339;28;20522;-71
2021/05/15 04:16:49;;;;;;;2.00;1.85;;;;;;;12.61;81.37;99673.84;5013412;28;20038;-71
2021/05/15 04:19:14;;;;;;;1.63;1.52;;;;;;;12.39;81.06;99681.28;5012752;28;20079;-71
2021/05/15 04:21:40;;;;;;;4.05;1.73;;;;;;;12.44;80.95;99690.06;5012695;28;20431;-71
2021/05/15 04:24:07;;;;;;;3.35;1.50;;;;;;;12.59;80.92;99697.38;5012571;28;20107;-71
2021/05/15 04:26:32;;;;;;;1.75;1.48;;;;;;;13.37;78.76;99693.44;5012742;28;20026;-71
2021/05/15 04:29:00;;;;;;;1.25;1.15;;;;;;;13.48;76.64;99697.06;5012680;28;20034;-71
2021/05/15 04:31:25;;;;;;;1.65;1.30;;;;;;;14.12;74.42;99702.78;5012726;28;20021;-71
2021/05/15 04:33:51;;;;;;;1.52;1.10;;;;;;;14.04;75.37;99703.97;5012377;28;20460;-71
2021/05/15 04:36:16;;;;;;;1.75;1.65;;;;;;;14.95;72.76;99697.94;5012734;28;20021;-71
2021/05/15 04:38:42;;;;;;;0.98;0.98;;;;;;;14.82;71.96;99705.16;5012467;28;20045;-70
2021/05/15 04:41:07;;;;;;;1.15;1.05;;;;;;;15.56;70.78;99706.91;5012327;28;20022;-71
2021/05/15 04:43:33;;;;;;;1.35;1.20;;;;;;;16.51;67.36;99712.28;5012568;28;20040;-71
2021/05/15 04:45:59;;;;;;;0.93;0.90;;;;;;;17.34;63.82;99712.28;5011999;28;20053;-71
2021/05/15 04:48:24;;;;;;;1.60;1.10;;;;;;;17.94;61.30;99713.50;5012111;28;20038;-71
2021/05/15 04:50:50;;;;;;;1.10;0.77;;;;;;;18.43;59.02;99702.69;5012043;28;20096;-71
2021/05/15 04:53:16;;;;;;;1.00;1.00;;;;;;;19.15;56.78;99711.47;4995407;28;20050;-71
2021/05/15 04:55:42;;;;;;;2.58;1.48;;;;;;;19.17;55.44;99711.81;5012175;28;20116;-71
2021/05/15 04:58:07;;;;;;;2.35;1.05;;;;;;;19.40;54.80;99702.53;5011930;28;20455;-71
2021/05/15 05:00:33;;;;;;;0.68;0.68;;;;;;;19.69;53.41;99704.75;5011988;28;20086;-71
2021/05/15 05:02:59;;;;;;;1.38;0.70;;;;;;;19.66;52.71;99709.25;5012103;28;20077;-71
2021/05/15 05:05:24;;;;;;;3.13;0.77;;;;;;;19.15;55.05;99708.66;5011980;28;20431;-71
2021/05/15 05:07:51;;;;;;;2.22;0.80;;;;;;;20.16;52.72;99710.94;5012085;28;20030;-71
2021/05/15 05:10:17;;;;;;;0.73;0.73;;;;;;;19.56;53.86;99718.72;5011733;28;20038;-71
2021/05/15 05:12:43;;;;;;;1.63;1.00;;;;;;;19.49;54.15;99702.72;5013355;28;20060;-71
2021/05/15 05:15:09;;;;;;;3.53;0.90;;;;;;;20.13;53.45;99723.94;5011991;28;20061;-70
2021/05/15 05:17:34;;;;;;;2.75;1.10;;;;;;;20.76;50.90;99728.44;5011663;28;20038;-71
2021/05/15 05:20:03;;;;;;;0.98;0.88;;;;;;;21.41;49.91;99739.66;5011949;28;20101;-71
2021/05/15 05:22:29;;;;;;;2.22;0.93;;;;;;;21.50;48.26;99736.16;5011397;28;20045;-71
2021/05/15 05:24:55;;;;;;;2.05;1.00;;;;;;;22.10;47.73;99746.91;5015356;28;20057;-71
2021/05/15 05:27:21;;;;;;;1.48;0.80;;;;;;;22.63;46.50;99741.56;5015409;28;20040;-71
2021/05/15 05:29:47;;;;;;;1.63;1.10;;;;;;;22.09;46.61;99734.78;5015163;28;20014;-70
2021/05/15 05:32:13;;;;;;;1.65;1.55;;;;;;;22.42;47.03;99745.91;5015344;28;20030;-72
2021/05/15 05:34:39;;;;;;;22.38;5.53;;;;;;;22.67;45.79;99740.22;4998740;28;20088;-71
2021/05/15 05:37:05;;;;;;;2.65;1.35;;;;;;;22.78;45.28;99742.69;5015198;28;20022;-71
2021/05/15 05:39:31;;;;;;;2.58;1.88;;;;;;;21.60;48.77;99740.72;5016353;28;20452;-71
2021/05/15 05:41:58;;;;;;;2.58;1.45;;;;;;;20.58;52.62;99745.06;5016715;28;20029;-71
2021/05/15 05:44:24;;;;;;;2.05;1.10;;;;;;;20.64;51.51;99751.78;5016452;28;20041;-72
2021/05/15 05:46:52;;;;;;;3.05;1.25;;;;;;;21.42;50.09;99763.88;5015163;28;20460;-71
2021/05/15 05:49:18;;;;;;;2.45;1.20;;;;;;;21.64;49.82;99764.06;5016708;28;20370;-70
2021/05/15 05:51:43;;;;;;;1.83;1.35;;;;;;;20.65;52.71;99770.31;5014546;28;20065;-71
2021/05/15 05:54:09;;;;;;;2.08;1.30;;;;;;;21.28;50.84;99767.06;5015124;28;20029;-70
2021/05/15 05:56:35;;;;;;;0.82;0.82;;;;;;;22.18;48.94;99771.75;5014855;28;20474;-70
2021/05/15 05:59:01;;;;;;;6.00;1.75;;;;;;;20.22;52.58;99771.31;5014899;28;20018;-71
2021/05/15 06:01:27;;;;;;;1.98;1.52;;;;;;;19.80;53.82;99775.88;5014753;28;20033;-71
2021/05/15 06:03:52;;;;;;;1.63;1.40;;;;;;;18.71;55.69;99775.50;5014859;28;20125;-71
2021/05/15 06:06:18;;;;;;;2.05;1.25;;;;;;;17.19;59.89;99777.09;5014837;28;20435;-70
2021/05/15 06:08:46;;;;;;;1.60;1.30;;;;;;;16.82;62.86;99783.47;5014185;28;20103;-72
2021/05/15 06:11:12;;;;;;;3.25;1.63;;;;;;;16.32;64.25;99788.66;5014645;28;20030;-71
2021/05/15 06:13:38;;;;;;;2.28;1.20;;;;;;;16.32;64.58;99783.84;5014676;28;20026;-71
2021/05/15 06:16:04;;;;;;;1.42;1.25;;;;;;;16.10;64.90;99788.81;5014687;28;20448;-70
2021/05/15 06:18:29;;;;;;;1.20;1.10;;;;;;;15.82;65.41;99797.34;5014490;28;20602;-71
2021/05/15 06:20:58;;;;;;;2.22;1.23;;;;;;;16.10;64.94;99794.41;5014556;28;20108;-69
2021/05/15 06:23:24;;;;;;;1.65;1.20;;;;;;;15.80;65.48;99799.78;5014892;28;20077;-70
2021/05/15 06:25:51;;;;;;;2.38;0.90;;;;;;;16.14;62.92;99794.38;5014624;28;20518;-70
2021/05/15 06:28:17;;;;;;;1.92;1.20;;;;;;;17.07;61.23;99800.13;5014737;28;20080;-70
2021/05/15 06:30:43;;;;;;;3.10;0.90;;;;;;;17.53;60.06;99799.63;5014353;28;20112;-69
2021/05/15 06:33:24;;;;;;;1.40;1.30;;;;;;;17.58;58.86;99789.94;5014107;28;20041;-70
2021/05/15 06:35:50;;;;;;;1.77;0.88;;;;;;;18.03;57.84;99803.84;5013382;28;20026;-70
2021/05/15 06:38:17;;;;;;;2.45;1.10;;;;;;;18.23;56.82;99818.06;5014442;28;20021;-70
2021/05/15 06:40:42;;;;;;;2.13;1.05;;;;;;;18.58;56.44;99813.91;5014285;28;20037;-72
2021/05/15 06:43:08;;;;;;;1.55;1.00;;;;;;;19.05;55.15;99811.94;5014319;28;20464;-71
2021/05/15 06:45:34;;;;;;;2.40;1.30;;;;;;;19.80;52.96;99807.72;5013997;28;20041;-72
2021/05/15 06:47:59;;;;;;;1.42;1.33;;;;;;;19.91;53.09;99818.00;5013944;28;20095;-71
2021/05/15 06:50:25;;;;;;;1.45;1.00;;;;;;;20.67;51.24;99825.19;5013934;28;20034;-70
2021/05/15 06:52:50;;;;;;;3.00;0.93;;;;;;;21.21;49.85;99825.88;5013475;28;20046;-72
2021/05/15 06:55:16;;;;;;;1.13;1.02;;;;;;;21.02;49.72;99828.38;5013867;28;20488;-71
2021/05/15 06:57:42;;;;;;;2.10;1.20;;;;;;;20.87;49.64;99829.97;5013692;28;20026;-70
2021/05/15 07:00:08;;;;;;;1.80;1.70;;;;;;;19.09;53.79;99826.00;5013906;28;20114;-70
2021/05/15 07:02:34;;;;;;;1.30;1.20;;;;;;;19.98;52.04;99832.78;5013606;28;20052;-71
2021/05/15 07:05:00;;;;;;;1.30;1.02;;;;;;;20.04;51.42;99835.88;5013467;28;20021;-71
2021/05/15 07:07:26;;;;;;;0.73;0.73;;;;;;;19.71;52.32;99834.94;5013678;28;20376;-71
2021/05/15 07:09:52;;;;;;;1.58;0.93;;;;;;;19.90;51.48;99831.31;5013311;28;20041;-71
2021/05/15 07:12:18;;;;;;;1.05;0.90;;;;;;;19.97;51.57;99836.03;5014511;28;20084;-71
2021/05/15 07:14:44;;;;;;;5.60;1.10;;;;;;;19.69;52.12;99831.75;5013333;28;20029;-71
2021/05/15 07:17:13;;;;;;;2.25;1.10;;;;;;;19.37;53.24;99833.94;5014699;28;20456;-70
2021/05/15 07:19:39;;;;;;;2.78;0.93;;;;;;;18.54;56.22;99830.09;5013442;28;20029;-71
2021/05/15 07:22:05;;;;;;;0.93;0.85;;;;;;;18.17;55.79;99837.47;5013448;28;20435;-69
2021/05/15 07:24:30;;;;;;;4.35;1.10;;;;;;;18.10;55.31;99840.34;5013482;28;20476;-70
2021/05/15 07:26:56;;;;;;;1.00;0.70;;;;;;;18.70;55.07;99852.03;5013725;28;20029;-70
2021/05/15 07:29:21;;;;;;;5.15;0.70;;;;;;;17.87;56.15;99851.50;5013554;28;20030;-71
2021/05/15 07:31:47;;;;;;;1.17;0.75;;;;;;;18.22;55.73;99845.44;5013663;28;20026;-72
2021/05/15 07:34:12;;;;;;;1.05;0.98;;;;;;;17.70;56.97;99842.84;5012793;28;20113;-69
2021/05/15 07:36:41;;;;;;;1.40;0.70;;;;;;;18.09;54.79;99847.22;5013504;28;20124;-70
2021/05/15 07:39:09;;;;;;;2.70;0.80;;;;;;;18.02;54.88;99852.94;5012916;28;20025;-69
2021/05/15 07:41:34;;;;;;;0.65;0.50;;;;;;;17.94;54.11;99851.41;5013203;28;20037;-70
2021/05/15 07:44:00;;;;;;;1.67;1.00;;;;;;;18.78;53.63;99848.66;5012933;28;20372;-71
2021/05/15 07:46:26;;;;;;;0.60;0.60;;;;;;;19.74;50.59;99845.38;5013143;28;20088;-72
2021/05/15 07:48:51;;;;;;;0.98;0.55;;;;;;;20.23;49.44;99849.16;5013826;28;20034;-72
2021/05/15 07:51:22;;;;;;;1.55;0.82;;;;;;;21.13;48.09;99850.72;5012625;28;20029;-70
2021/05/15 07:53:49;;;;;;;0.95;0.60;;;;;;;20.16;47.91;99860.63;5012236;28;20041;-71
2021/05/15 07:56:14;;;;;;;3.60;0.85;;;;;;;20.33;48.55;99853.78;5012262;28;20022;-70
2021/05/15 07:58:40;;;;;;;1.70;0.70;;;;;;;20.57;47.94;99863.00;5012115;28;20472;-71
2021/05/15 08:01:06;;;;;;;1.60;0.68;;;;;;;20.66;47.70;99870.84;5011972;28;20037;-70
2021/05/15 08:03:31;;;;;;;0.80;0.80;;;;;;;20.99;46.69;99860.38;5012327;28;20030;-69
2021/05/15 08:05:57;;;;;;;1.40;0.95;;;;;;;21.49;46.89;99861.16;5011922;28;20040;-70
2021/05/15 08:08:22;;;;;;;1.73;1.00;;;;;;;21.98;45.88;99864.63;5011929;28;20025;-71
2021/05/15 08:10:48;;;;;;;1.58;1.17;;;;;;;22.06;44.15;99868.06;5011840;28;20029;-71
2021/05/15 08:13:14;;;;;;;2.15;1.58;;;;;;;21.71;44.83;99856.47;5011772;28;20124;-70
2021/05/15 08:15:40;;;;;;;2.88;1.05;;;;;;;20.68;48.15;99851.44;5013602;28;20030;-69
2021/05/15 08:18:06;;;;;;;3.13;0.98;;;;;;;19.95;49.87;99861.09;5011642;28;20022;-68
2021/05/15 08:20:31;;;;;;;0.93;0.93;;;;;;;19.66;50.51;99866.50;5011824;28;20030;-69
2021/05/15 08:22:57;;;;;;;1.00;0.60;;;;;;;20.03;50.13;99862.53;5011717;28;20057;-68
2021/05/15 08:25:25;;;;;;;1.80;0.90;;;;;;;19.72;50.78;99868.38;5012029;28;20372;-69
2021/05/15 08:27:52;;;;;;;1.95;0.90;;;;;;;19.02;53.89;99865.59;5012962;28;20419;-70
2021/05/15 08:30:20;;;;;;;2.53;0.80;;;;;;;18.32;56.69;99867.03;5011793;28;20118;-70
2021/05/15 08:32:46;;;;;;;2.97;0.82;;;;;;;18.32;56.01;99866.19;5011933;28;20033;-71
2021/05/15 08:35:14;;;;;;;1.55;1.08;;;;;;;18.86;54.42;99865.47;5011627;28;20034;-70
2021/05/15 08:37:39;;;;;;;0.90;0.80;;;;;;;19.41;52.94;99864.13;5012050;28;20025;-70
2021/05/15 08:40:07;;;;;;;3.33;0.88;;;;;;;20.38;49.93;99872.25;5011798;28;20369;-71
2021/05/15 08:42:37;;;;;;;0.70;0.70;;;;;;;20.78;48.85;99873.00;5011771;28;20037;-70
2021/05/15 08:45:04;;;;;;;1.20;1.02;;;;;;;20.27;50.43;99872.50;5012899;28;20033;-70
2021/05/15 08:47:31;;;;;;;0.70;0.70;;;;;;;21.09;48.73;99875.47;5011591;28;20120;-70
2021/05/15 08:50:02;;;;;;;1.55;0.88;;;;;;;21.13;48.08;99876.19;5011136;28;20014;-69
2021/05/15 08:52:28;;;;;;;2.95;0.65;;;;;;;22.01;44.60;99889.22;5010630;28;20507;-69
2021/05/15 08:54:57;;;;;;;1.67;0.90;;;;;;;21.19;47.20;99883.69;5011448;28;20033;-72
2021/05/15 08:57:22;;;;;;;1.52;0.90;;;;;;;21.69;47.10;99887.28;5011596;28;20112;-71
2021/05/15 08:59:49;;;;;;;3.70;1.27;;;;;;;21.42;47.22;99894.06;5014886;28;20445;-70
2021/05/15 09:02:16;;;;;;;1.38;1.02;;;;;;;21.51;46.48;99889.78;5015398;28;20025;-72
2021/05/15 09:04:41;;;;;;;1.75;0.75;;;;;;;20.70;48.60;99894.19;5015348;28;20124;-71
2021/05/15 09:07:09;;;;;;;0.63;0.60;;;;;;;21.12;47.61;99898.00;5015370;28;20104;-71
2021/05/15 09:09:35;;;;;;;1.35;0.70;;;;;;;21.16;47.25;99903.59;5015459;28;20049;-71
2021/05/15 09:12:01;;;;;;;2.42;0.73;;;;;;;20.73;47.82;99893.31;5015323;28;20500;-70
2021/05/15 09:14:27;;;;;;;1.15;0.80;;;;;;;21.28;46.23;99902.88;5014891;28;20030;-71
2021/05/15 09:16:57;;;;;;;1.52;0.63;;;;;;;20.57;48.08;99904.59;5015131;28;20025;-70
2021/05/15 09:19:25;;;;;;;0.80;0.73;;;;;;;20.25;48.71;99914.53;5015049;28;20412;-71
2021/05/15 09:21:59;;;;;;;0.68;0.68;;;;;;;19.67;50.14;99888.66;5015438;28;20022;-71
2021/05/15 09:24:34;;;;;;;2.28;0.68;;;;;;;19.90;50.59;99913.19;5016909;28;20110;-70
2021/05/15 09:27:02;;;;;;;1.95;1.08;;;;;;;19.67;51.33;99919.69;5015217;28;20022;-70
2021/05/15 09:29:43;;;;;;;2.25;0.75;;;;;;;19.73;51.20;99917.97;5015145;28;20377;-70
2021/05/15 09:32:08;;;;;;;1.27;0.90;;;;;;;19.75;52.41;99918.31;5015360;28;20087;-71
2021/05/15 09:34:49;;;;;;;3.42;0.63;;;;;;;19.50;51.29;99912.31;5015299;28;20094;-70
2021/05/15 09:37:30;;;;;;;1.67;0.68;;;;;;;19.34;52.08;99919.44;5015190;28;20025;-70
2021/05/15 09:39:56;;;;;;;2.95;0.80;;;;;;;20.42;49.41;99907.69;5015082;28;20025;-72
2021/05/15 09:42:21;;;;;;;1.55;0.90;;;;;;;20.67;48.71;99915.66;5015143;28;20049;-71
2021/05/15 09:44:47;;;;;;;1.13;0.57;;;;;;;20.74;48.16;99914.69;5015148;28;20025;-75
2021/05/15 09:47:18;;;;;;;0.68;0.68;;;;;;;20.72;48.69;99910.69;5014954;28;20030;-71
2021/05/15 09:49:44;;;;;;;2.80;0.85;;;;;;;20.54;48.88;99919.56;5014992;28;20024;-70
2021/05/15 09:52:10;;;;;;;1.58;0.60;;;;;;;21.21;47.82;99920.03;5014966;28;20054;-70
2021/05/15 09:54:45;;;;;;;1.40;0.85;;;;;;;21.68;45.89;99923.31;5014906;28;20018;-71
2021/05/15 09:57:13;;;;;;;0.80;0.80;;;;;;;20.79;46.94;99925.47;5014585;28;20061;-70
2021/05/15 09:59:46;;;;;;;1.85;0.63;;;;;;;20.57;48.47;99930.03;5014728;28;20018;-69
2021/05/15 10:02:17;;;;;;;1.38;0.57;;;;;;;20.96;47.60;99923.47;5014573;28;20057;-71
2021/05/15 10:04:44;;;;;;;2.22;0.70;;;;;;;22.30;44.39;99922.41;5014523;28;20018;-70
2021/05/15 10:07:29;;;;;;;1.55;0.40;;;;;;;22.37;44.29;99916.53;5014431;28;20045;-71
2021/05/15 10:09:59;;;;;;;1.85;0.63;;;;;;;22.46;44.78;99925.19;5013051;28;20022;-71
2021/05/15 10:12:26;;;;;;;1.20;0.50;;;;;;;22.21;44.41;99917.41;5014739;28;20026;-69
2021/05/15 10:14:52;;;;;;;1.40;0.68;;;;;;;22.57;43.21;99922.00;5014612;28;20057;-70
2021/05/15 10:17:21;;;;;;;3.08;0.73;;;;;;;22.75;43.70;99925.91;5014527;28;20168;-70
2021/05/15 10:19:47;;;;;;;2.67;0.75;;;;;;;22.47;44.03;99916.22;5014550;28;20033;-70
2021/05/15 10:22:12;;;;;;;1.95;0.57;;;;;;;21.89;44.85;99916.25;5014282;28;20125;-70
2021/05/15 10:24:46;;;;;;;0.68;0.68;;;;;;;21.74;45.04;99917.91;5014486;28;20164;-71
2021/05/15 10:27:13;;;;;;;0.73;0.73;;;;;;;22.33;43.86;99913.81;5014214;28;20062;-71
2021/05/15 10:29:51;;;;;;;1.20;0.75;;;;;;;22.59;43.33;99922.38;5014129;28;20029;-70
2021/05/15 10:32:26;;;;;;;0.65;0.65;;;;;;;22.42;43.80;99919.59;5014179;28;20026;-70
2021/05/15 10:34:59;;;;;;;1.75;0.60;;;;;;;21.66;45.30;99907.97;5015729;28;20033;-70
2021/05/15 10:37:25;;;;;;;1.73;1.00;;;;;;;21.05;46.56;99915.16;5014158;28;20056;-71
2021/05/15 10:39:51;;;;;;;1.58;1.25;;;;;;;21.61;46.01;99923.47;5014051;28;20483;-71
2021/05/15 10:42:32;;;;;;;3.75;0.80;;;;;;;21.19;46.01;99914.00;5014171;28;20460;-70
2021/05/15 10:44:58;;;;;;;3.15;0.60;;;;;;;21.53;46.08;99926.94;5013987;28;20025;-71
2021/05/15 10:47:23;;;;;;;1.30;0.50;;;;;;;21.24;46.42;99904.19;5014086;28;20106;-70
2021/05/15 10:49:49;;;;;;;1.23;0.70;;;;;;;21.20;47.43;99929.78;5013794;28;20029;-70
2021/05/15 10:52:17;;;;;;;2.15;0.65;;;;;;;21.36;46.83;99915.66;5013721;28;20505;-71
2021/05/15 10:54:47;;;;;;;5.03;0.73;;;;;;;20.97;47.32;99912.94;5013497;28;20037;-70
2021/05/15 10:57:15;;;;;;;1.23;0.60;;;;;;;21.33;46.80;99913.69;5014889;28;20068;-70
2021/05/15 10:59:43;;;;;;;1.08;0.80;;;;;;;21.07;47.20;99920.38;5013663;28;20026;-71
2021/05/15 11:02:13;;;;;;;4.00;0.90;;;;;;;21.23;47.15;99926.03;5013771;28;20034;-70
2021/05/15 11:04:52;;;;;;;0.82;0.77;;;;;;;20.57;48.79;99913.06;5013729;28;20374;-71
2021/05/15 11:07:22;;;;;;;1.58;0.60;;;;;;;21.09;47.84;99932.03;5013610;28;20084;-70
2021/05/15 11:09:58;;;;;;;1.75;0.95;;;;;;;21.28;46.74;99931.16;4997269;28;20097;-71
2021/05/15 11:12:25;;;;;;;0.93;0.50;;;;;;;21.49;45.64;99927.03;5013611;28;20022;-70
2021/05/15 11:14:51;;;;;;;4.53;1.00;;;;;;;21.94;45.39;99929.06;5013453;28;20030;-70
2021/05/15 11:17:23;;;;;;;0.73;0.50;;;;;;;22.04;45.37;99927.19;5013592;28;20018;-71
2021/05/15 11:20:12;;;;;;;2.88;0.80;;;;;;;22.40;45.44;99924.94;5013358;28;20037;-71
2021/05/15 11:22:40;;;;;;;0.77;0.60;;;;;;;22.57;45.23;99914.31;5003397;28;20066;-70
2021/05/15 11:25:17;;;;;;;1.17;0.85;;;;;;;22.32;45.77;99919.91;5014248;28;20032;-70
2021/05/15 11:27:53;;;;;;;2.15;0.77;;;;;;;22.77;44.06;99936.00;5013315;28;20026;-71
2021/05/15 11:30:28;;;;;;;2.83;0.73;;;;;;;22.87;43.95;99940.53;5014145;28;20522;-71
2021/05/15 11:33:05;;;;;;;3.63;1.85;;;;;;;23.14;43.67;99938.06;5013064;28;20026;-70
2021/05/15 11:35:35;;;;;;;2.67;1.00;;;;;;;22.86;44.46;99933.28;5013121;28;20088;-70